KDUG/DUG METAR and TAF weather

Enter ICAO airport designator
Station Type Date Time Source
KDUG METAR 2020/01/23 08:56 UTC NOAA

KDUG 230856Z AUTO 34006KT 10SM CLR 01/01 A3015 RMK AO2 SLP187 T00110006 53000


Station Type Date Time Source
KDUG Decoded METAR 2020/01/23 08:56 UTC NOAA

BISBEE DOUGLAS INTERNATIONAL AIRPORT , AZ, United States (KDUG) 31-28N 109-36W
Jan 23, 2020 - 03:56 AM EST / 2020.01.23 0856 UTC
Wind: from the NNW (340 degrees) at 7 MPH (6 KT):0
Visibility: 10 mile(s):0
Sky conditions: clear
Temperature: 34.0 F (1.1 C)
Windchill: 28 F (-2 C):1
Dew Point: 33.1 F (0.6 C)
Relative Humidity: 96%
Pressure (altimeter): 30.15 in. Hg (1020 hPa)
Pressure tendency: 0.00 inches (0.0 hPa) higher than three hours ago
ob: KDUG 230856Z AUTO 34006KT 10SM CLR 01/01 A3015 RMK AO2 SLP187 T00110006 53000
cycle: 9

Station Type Date Time Source
KDUG TAF 2020/01/23 06:39 UTC NOAA

TAF KDUG 230535Z 2306/2406 35006KT P6SM SCT250
FM230900 VRB04KT P6SM SCT250
FM231700 34004KT P6SM FEW050
FM232100 04005KT P6SM SKC

Example: see airport list